Time;durP1;ratioP1;P1;durP2;ratioP2;P2;SDS_P1;SDS_P2;PMS_P1;PMS_P2;Temp;Humidity;BMP_temperature;BMP_pressure;BME280_temperature;BME280_humidity;BME280_pressure;Samples;Min_cycle;Max_cycle;Signal;HPM_P1;HPM_P2
2023/12/18 00:00:51;;;;;;;;;;;;;;;17.80;62.58;102763.97;7392588;19;1329;-59
2023/12/18 00:03:19;;;;;;;;;;;;;;;17.87;62.09;102764.56;7391866;19;1894;-58
2023/12/18 00:05:48;;;;;;;;;;;;;;;17.69;62.38;102777.06;7390313;19;1425;-58
2023/12/18 00:08:17;;;;;;;;;;;;;;;17.49;63.20;102773.56;7389838;19;1489;-60
2023/12/18 00:10:45;;;;;;;;;;;;;;;17.40;63.34;102774.00;7388590;19;1813;-60
2023/12/18 00:13:13;;;;;;;;;;;;;;;17.30;63.51;102767.41;7390336;19;1360;-60
2023/12/18 00:15:44;;;;;;;;;;;;;;;17.19;63.82;102756.34;7390902;19;1471;-60
2023/12/18 00:18:12;;;;;;;;;;;;;;;17.40;63.41;102749.94;7390352;19;1465;-61
2023/12/18 00:20:40;;;;;;;;;;;;;;;17.85;62.54;102748.59;7390328;19;1360;-60
2023/12/18 00:23:09;;;;;;;;;;;;;;;17.84;62.33;102743.31;7390372;19;1257;-60
2023/12/18 00:25:38;;;;;;;;;;;;;;;17.63;62.72;102753.28;7390125;19;1329;-60
2023/12/18 00:28:06;;;;;;;;;;;;;;;17.44;63.33;102754.19;7390887;19;1857;-60
2023/12/18 00:30:34;;;;;;;;;;;;;;;17.33;63.54;102747.66;7388047;19;1853;-60
2023/12/18 00:33:06;;;;;;;;;;;;;;;17.28;63.82;102758.59;7389033;19;1242;-60
2023/12/18 00:35:34;;;;;;;;;;;;;;;17.20;63.95;102753.59;7388586;19;1586;-61
2023/12/18 00:38:02;;;;;;;;;;;;;;;17.12;64.12;102753.13;7389059;19;1489;-60
2023/12/18 00:40:30;;;;;;;;;;;;;;;17.05;64.35;102732.97;7390382;19;1448;-61
2023/12/18 00:42:59;;;;;;;;;;;;;;;17.24;63.96;102738.28;7390248;19;1380;-60
2023/12/18 00:45:27;;;;;;;;;;;;;;;17.72;62.62;102739.41;7387270;19;1464;-60
2023/12/18 00:47:56;;;;;;;;;;;;;;;17.94;62.12;102738.34;7389971;19;1503;-60
2023/12/18 00:50:27;;;;;;;;;;;;;;;17.64;62.43;102728.25;7387673;19;1882;-60
2023/12/18 00:52:55;;;;;;;;;;;;;;;17.41;63.11;102738.31;7389316;19;1539;-60
2023/12/18 00:55:23;;;;;;;;;;;;;;;17.33;63.65;102731.59;7389513;19;1355;-60
2023/12/18 00:57:52;;;;;;;;;;;;;;;17.17;64.03;102727.03;7388157;19;1547;-61
2023/12/18 01:00:20;;;;;;;;;;;;;;;17.25;63.80;102738.22;7388979;19;1539;-60
2023/12/18 01:02:49;;;;;;;;;;;;;;;17.61;63.01;102710.56;7388385;19;1368;-60
2023/12/18 01:05:17;;;;;;;;;;;;;;;17.89;61.79;102695.78;7387071;19;1409;-60
2023/12/18 01:07:48;;;;;;;;;;;;;;;17.76;62.15;102708.03;7388584;19;1485;-61
2023/12/18 01:10:16;;;;;;;;;;;;;;;17.50;63.18;102713.75;7387391;19;1842;-60
2023/12/18 01:12:44;;;;;;;;;;;;;;;17.39;63.60;102725.94;7388187;19;1432;-61
2023/12/18 01:15:13;;;;;;;;;;;;;;;17.25;64.08;102726.66;7389539;19;1168;-60
2023/12/18 01:17:41;;;;;;;;;;;;;;;17.19;64.21;102701.09;7389331;19;1345;-61
2023/12/18 01:20:10;;;;;;;;;;;;;;;17.19;64.22;102713.56;7388936;19;1841;-60
2023/12/18 01:22:38;;;;;;;;;;;;;;;17.17;64.28;102715.47;7388800;19;1882;-61
2023/12/18 01:25:10;;;;;;;;;;;;;;;17.10;64.30;102709.56;7388429;19;1569;-60
2023/12/18 01:27:38;;;;;;;;;;;;;;;17.43;63.35;102698.13;7388315;19;1504;-60
2023/12/18 01:30:07;;;;;;;;;;;;;;;17.75;62.48;102698.28;7387487;19;1837;-60
2023/12/18 01:32:36;;;;;;;;;;;;;;;17.97;61.82;102695.38;7388334;19;1526;-61
2023/12/18 01:35:04;;;;;;;;;;;;;;;18.02;61.47;102695.97;7387659;19;1419;-60
2023/12/18 01:37:32;;;;;;;;;;;;;;;18.01;61.58;102700.47;7388773;19;1360;-60
2023/12/18 01:40:01;;;;;;;;;;;;;;;18.01;61.34;102702.28;7387899;19;1369;-60
2023/12/18 01:42:32;;;;;;;;;;;;;;;18.01;61.43;102683.56;7388086;19;1517;-61
2023/12/18 01:45:00;;;;;;;;;;;;;;;17.86;61.71;102678.03;7388791;19;1384;-61
2023/12/18 01:47:28;;;;;;;;;;;;;;;17.54;62.04;102673.50;7393081;19;1373;-60
2023/12/18 01:49:56;;;;;;;;;;;;;;;17.38;62.72;102676.94;7394721;19;1861;-61
2023/12/18 01:52:25;;;;;;;;;;;;;;;17.28;63.37;102671.19;7395302;19;1795;-60
2023/12/18 01:54:54;;;;;;;;;;;;;;;17.19;63.75;102673.47;7395722;19;1443;-60
2023/12/18 01:57:23;;;;;;;;;;;;;;;17.18;63.82;102658.38;7394465;19;1437;-61
2023/12/18 01:59:54;;;;;;;;;;;;;;;17.20;63.84;102662.72;7396521;19;1407;-60
2023/12/18 02:02:22;;;;;;;;;;;;;;;17.17;63.68;102660.19;7395386;19;1395;-60
2023/12/18 02:04:51;;;;;;;;;;;;;;;17.12;64.05;102670.25;7393746;19;1462;-60
2023/12/18 02:07:19;;;;;;;;;;;;;;;17.02;64.15;102664.50;7394595;19;1376;-60
2023/12/18 02:09:48;;;;;;;;;;;;;;;17.16;63.95;102628.19;7394442;19;1865;-60
2023/12/18 02:12:16;;;;;;;;;;;;;;;17.46;63.20;102645.31;7395620;19;1247;-60
2023/12/18 02:14:44;;;;;;;;;;;;;;;17.80;62.11;102650.72;7393020;19;1517;-60
2023/12/18 02:17:15;;;;;;;;;;;;;;;17.95;61.39;102635.69;7393755;19;1464;-60
2023/12/18 02:19:43;;;;;;;;;;;;;;;17.97;61.22;102623.09;7394163;19;1432;-60
2023/12/18 02:22:12;;;;;;;;;;;;;;;18.00;61.33;102636.28;7394383;19;1696;-60
2023/12/18 02:24:42;;;;;;;;;;;;;;;18.02;61.16;102623.69;7393123;19;1473;-58
2023/12/18 02:27:11;;;;;;;;;;;;;;;18.04;60.96;102619.13;7393651;19;1510;-58
2023/12/18 02:29:39;;;;;;;;;;;;;;;18.03;61.20;102628.13;7392814;19;1862;-59
2023/12/18 02:32:08;;;;;;;;;;;;;;;18.27;60.71;102625.88;7391790;19;1544;-59
2023/12/18 02:34:36;;;;;;;;;;;;;;;18.68;59.50;102622.66;7393759;19;1547;-58
2023/12/18 02:37:04;;;;;;;;;;;;;;;18.86;59.34;102626.13;7394414;19;1391;-58
2023/12/18 02:39:33;;;;;;;;;;;;;;;18.92;59.21;102636.53;7394890;19;1345;-58
2023/12/18 02:42:03;;;;;;;;;;;;;;;18.99;58.87;102624.47;7394083;19;1179;-58
2023/12/18 02:44:32;;;;;;;;;;;;;;;19.08;58.69;102631.97;7393041;19;1779;-58
2023/12/18 02:47:00;;;;;;;;;;;;;;;19.16;58.42;102618.13;7393321;19;1335;-59
2023/12/18 02:49:28;;;;;;;;;;;;;;;19.19;58.51;102622.44;7392286;19;1846;-58
2023/12/18 02:51:57;;;;;;;;;;;;;;;19.14;58.70;102625.41;7392475;19;1583;-59
2023/12/18 02:54:25;;;;;;;;;;;;;;;19.17;58.78;102624.34;7393282;19;1240;-61
2023/12/18 02:56:53;;;;;;;;;;;;;;;19.15;58.79;102618.22;7393536;19;1464;-60
2023/12/18 02:59:24;;;;;;;;;;;;;;;19.19;58.76;102617.06;7392077;19;1257;-60
2023/12/18 03:01:52;;;;;;;;;;;;;;;19.25;58.50;102627.44;7393683;19;1476;-61
2023/12/18 03:04:21;;;;;;;;;;;;;;;19.22;58.45;102617.75;7392435;19;1386;-60
2023/12/18 03:06:49;;;;;;;;;;;;;;;19.24;58.39;102612.31;7393996;19;1395;-60
2023/12/18 03:09:17;;;;;;;;;;;;;;;19.32;58.40;102614.50;7393037;19;1480;-60
2023/12/18 03:11:47;;;;;;;;;;;;;;;19.36;58.17;102619.59;7391586;19;1844;-61
2023/12/18 03:14:15;;;;;;;;;;;;;;;19.39;58.47;102630.13;7392766;19;1771;-60
2023/12/18 03:16:46;;;;;;;;;;;;;;;19.39;58.32;102614.03;7392158;19;1557;-60
2023/12/18 03:19:14;;;;;;;;;;;;;;;19.38;58.29;102606.09;7391534;19;1468;-61
2023/12/18 03:21:43;;;;;;;;;;;;;;;19.39;58.19;102615.88;7392657;19;1500;-61
2023/12/18 03:24:11;;;;;;;;;;;;;;;19.31;58.23;102610.97;7390817;19;1548;-61
2023/12/18 03:26:39;;;;;;;;;;;;;;;19.43;58.25;102604.84;7390633;19;1436;-60
2023/12/18 03:29:08;;;;;;;;;;;;;;;19.39;58.32;102610.50;7390766;19;1440;-60
2023/12/18 03:31:36;;;;;;;;;;;;;;;19.41;58.08;102612.13;7390297;19;1846;-61
2023/12/18 03:34:07;;;;;;;;;;;;;;;19.42;58.01;102613.88;7391882;19;1516;-60
2023/12/18 03:36:35;;;;;;;;;;;;;;;19.48;58.09;102624.22;7390668;19;1816;-61
2023/12/18 03:39:04;;;;;;;;;;;;;;;19.45;58.02;102607.44;7393035;19;1441;-61
2023/12/18 03:41:32;;;;;;;;;;;;;;;19.50;58.10;102593.72;7391554;19;1473;-60
2023/12/18 03:44:00;;;;;;;;;;;;;;;19.52;58.06;102608.81;7390002;19;1469;-61
2023/12/18 03:46:28;;;;;;;;;;;;;;;19.55;57.89;102602.38;7391955;19;1350;-60
2023/12/18 03:48:57;;;;;;;;;;;;;;;19.57;57.92;102605.84;7391819;19;1467;-61
2023/12/18 03:51:27;;;;;;;;;;;;;;;19.46;57.84;102603.81;7388759;19;1855;-61
2023/12/18 03:53:56;;;;;;;;;;;;;;;19.49;58.08;102617.03;7390946;19;1687;-61
2023/12/18 03:56:24;;;;;;;;;;;;;;;19.50;57.95;102601.78;7390407;19;1480;-61
2023/12/18 03:58:52;;;;;;;;;;;;;;;19.47;57.97;102601.00;7391537;19;1519;-61
2023/12/18 04:01:21;;;;;;;;;;;;;;;19.01;59.17;102613.66;7390738;19;1495;-61
2023/12/18 04:03:49;;;;;;;;;;;;;;;18.54;60.09;102625.28;7390757;19;1543;-60
2023/12/18 04:06:17;;;;;;;;;;;;;;;18.18;60.88;102619.22;7390670;19;1586;-61
2023/12/18 04:08:48;;;;;;;;;;;;;;;18.02;61.40;102612.97;7389846;19;1456;-61
2023/12/18 04:11:18;;;;;;;;;;;;;;;17.84;61.86;102629.09;7387808;19;1887;-61
2023/12/18 04:13:47;;;;;;;;;;;;;;;17.68;61.91;102604.06;7390822;19;1535;-60
2023/12/18 04:16:15;;;;;;;;;;;;;;;17.50;62.06;102619.28;7390030;19;1262;-60
2023/12/18 04:18:43;;;;;;;;;;;;;;;17.73;62.11;102610.06;7390809;19;1550;-60
2023/12/18 04:21:11;;;;;;;;;;;;;;;18.25;60.71;102617.09;7391750;19;1481;-61
2023/12/18 04:23:40;;;;;;;;;;;;;;;18.25;60.96;102625.13;7390861;19;1469;-61
2023/12/18 04:26:11;;;;;;;;;;;;;;;18.37;61.01;102618.22;7388853;19;1416;-60
2023/12/18 04:28:39;;;;;;;;;;;;;;;18.56;60.24;102626.94;7389125;19;1271;-61
2023/12/18 04:31:08;;;;;;;;;;;;;;;18.58;60.06;102611.63;7389480;19;1869;-61
2023/12/18 04:33:36;;;;;;;;;;;;;;;18.63;59.83;102616.72;7390824;19;1225;-61
2023/12/18 04:36:05;;;;;;;;;;;;;;;18.60;59.99;102612.41;7388564;19;1853;-61
2023/12/18 04:38:33;;;;;;;;;;;;;;;18.57;60.08;102609.91;7389270;19;1525;-60
2023/12/18 04:41:01;;;;;;;;;;;;;;;18.61;60.12;102611.44;7389429;19;1514;-61
2023/12/18 04:43:33;;;;;;;;;;;;;;;18.57;59.90;102590.28;7389749;19;1444;-61
2023/12/18 04:46:02;;;;;;;;;;;;;;;18.47;60.12;102589.94;7388062;19;1356;-61
2023/12/18 04:48:30;;;;;;;;;;;;;;;18.57;60.01;102588.47;7389019;19;1468;-61
2023/12/18 04:50:58;;;;;;;;;;;;;;;18.59;59.71;102580.34;7388592;19;1845;-61
2023/12/18 04:53:26;;;;;;;;;;;;;;;18.62;59.67;102590.88;7386893;19;1431;-61
2023/12/18 04:55:55;;;;;;;;;;;;;;;18.71;59.59;102589.50;7387424;19;1397;-67
2023/12/18 04:58:23;;;;;;;;;;;;;;;18.71;59.64;102584.97;7386471;19;1434;-60
2023/12/18 05:00:54;;;;;;;;;;;;;;;18.63;59.62;102577.38;7389978;19;1526;-61
2023/12/18 05:03:22;;;;;;;;;;;;;;;18.64;59.72;102591.63;7387488;19;1830;-61
2023/12/18 05:05:50;;;;;;;;;;;;;;;18.66;59.46;102579.91;7387591;19;1238;-61
2023/12/18 05:08:19;;;;;;;;;;;;;;;18.62;59.38;102575.69;7388494;19;1612;-61
2023/12/18 05:10:47;;;;;;;;;;;;;;;18.56;59.46;102568.00;7388753;19;1853;-61
2023/12/18 05:13:15;;;;;;;;;;;;;;;18.63;59.30;102577.38;7388181;19;1493;-61
2023/12/18 05:15:44;;;;;;;;;;;;;;;18.61;59.37;102586.47;7388296;19;1520;-61
2023/12/18 05:18:15;;;;;;;;;;;;;;;18.57;59.14;102583.09;7387195;19;1305;-61
2023/12/18 05:20:43;;;;;;;;;;;;;;;18.62;59.24;102599.78;7389555;19;1094;-61
2023/12/18 05:23:11;;;;;;;;;;;;;;;18.57;59.73;102588.47;7395406;19;1415;-62
2023/12/18 05:25:39;;;;;;;;;;;;;;;18.55;60.31;102587.69;7394703;19;1388;-60
2023/12/18 05:28:08;;;;;;;;;;;;;;;18.58;60.15;102590.22;7394555;19;1615;-60
2023/12/18 05:30:36;;;;;;;;;;;;;;;18.60;60.12;102593.66;7395160;19;1847;-63
2023/12/18 05:33:05;;;;;;;;;;;;;;;18.59;60.31;102583.88;7380077;19;1295;-61
2023/12/18 05:35:36;;;;;;;;;;;;;;;18.58;60.30;102587.53;7396487;19;1128;-61
2023/12/18 05:38:04;;;;;;;;;;;;;;;18.59;60.35;102601.78;7396039;19;1778;-58
2023/12/18 05:40:32;;;;;;;;;;;;;;;18.61;59.96;102584.66;7394940;19;1293;-59
2023/12/18 05:43:01;;;;;;;;;;;;;;;18.61;60.08;102584.66;7393691;19;1732;-61
2023/12/18 05:45:30;;;;;;;;;;;;;;;18.74;59.87;102582.13;7396675;19;1505;-59
2023/12/18 05:47:58;;;;;;;;;;;;;;;18.90;59.52;102571.41;7394141;19;1164;-59
2023/12/18 05:50:26;;;;;;;;;;;;;;;18.87;59.55;102584.97;7393629;19;1857;-60
2023/12/18 05:52:57;;;;;;;;;;;;;;;18.81;59.74;102574.63;7394526;19;1171;-57
2023/12/18 05:55:26;;;;;;;;;;;;;;;18.81;59.96;102570.13;7396320;19;1298;-64
2023/12/18 05:57:54;;;;;;;;;;;;;;;18.81;59.60;102585.34;7390243;19;1861;-60
2023/12/18 06:00:22;;;;;;;;;;;;;;;18.85;59.53;102565.44;7395462;19;1156;-60
2023/12/18 06:02:50;;;;;;;;;;;;;;;18.66;58.88;102566.50;7393665;19;1816;-60
2023/12/18 06:05:19;;;;;;;;;;;;;;;18.62;58.44;102554.25;7392555;19;1501;-61
2023/12/18 06:07:47;;;;;;;;;;;;;;;18.66;58.38;102558.47;7391707;19;1745;-61
2023/12/18 06:10:18;;;;;;;;;;;;;;;18.72;58.29;102569.75;7394620;19;1691;-61
2023/12/18 06:12:46;;;;;;;;;;;;;;;18.73;58.16;102564.31;7393390;19;1855;-60
2023/12/18 06:15:14;;;;;;;;;;;;;;;18.79;58.07;102565.78;7395824;19;1755;-60
2023/12/18 06:17:43;;;;;;;;;;;;;;;18.79;58.39;102568.47;7396047;19;1067;-60
2023/12/18 06:20:11;;;;;;;;;;;;;;;18.73;58.28;102571.50;7393256;19;1873;-60
2023/12/18 06:22:40;;;;;;;;;;;;;;;18.71;58.49;102573.41;7395920;19;1791;-60
2023/12/18 06:25:09;;;;;;;;;;;;;;;18.75;58.25;102569.59;7392284;19;1723;-59
2023/12/18 06:27:42;;;;;;;;;;;;;;;18.80;58.01;102567.53;7390742;19;1114;-59
2023/12/18 06:30:11;;;;;;;;;;;;;;;18.80;57.51;102572.88;7391605;19;1337;-60
2023/12/18 06:32:39;;;;;;;;;;;;;;;18.78;57.46;102569.41;7373372;19;1855;-60
2023/12/18 06:35:08;;;;;;;;;;;;;;;18.45;58.24;102584.66;7393687;19;1351;-60
2023/12/18 06:37:36;;;;;;;;;;;;;;;18.07;58.99;102589.50;7394994;19;1597;-59
2023/12/18 06:40:05;;;;;;;;;;;;;;;17.83;59.46;102581.88;7380164;19;2096;-59
2023/12/18 06:42:33;;;;;;;;;;;;;;;17.75;59.87;102599.28;7390160;19;1589;-59
2023/12/18 06:45:04;;;;;;;;;;;;;;;18.11;59.03;102591.06;7394129;19;1587;-59
2023/12/18 06:47:32;;;;;;;;;;;;;;;18.59;58.10;102575.84;7391687;19;1115;-59
2023/12/18 06:50:01;;;;;;;;;;;;;;;18.67;57.78;102572.72;7389184;19;1794;-59
2023/12/18 06:52:29;;;;;;;;;;;;;;;18.34;58.65;102580.88;7387310;19;1865;-59
2023/12/18 06:54:57;;;;;;;;;;;;;;;18.01;59.30;102571.13;7391606;19;1552;-59
2023/12/18 06:57:26;;;;;;;;;;;;;;;17.81;59.88;102556.13;7374560;19;1484;-59
2023/12/18 06:59:54;;;;;;;;;;;;;;;17.82;59.79;102563.19;7379880;19;1466;-59
2023/12/18 07:02:26;;;;;;;;;;;;;;;18.26;59.07;102583.97;7391988;19;1561;-59
2023/12/18 07:04:54;;;;;;;;;;;;;;;18.68;58.15;102586.03;7380325;19;1489;-59
2023/12/18 07:07:22;;;;;;;;;;;;;;;18.92;57.36;102582.91;7391002;19;1467;-60
2023/12/18 07:09:51;;;;;;;;;;;;;;;18.88;57.44;102576.00;7391269;19;1537;-59
2023/12/18 07:12:19;;;;;;;;;;;;;;;18.56;58.04;102567.09;7390944;19;1859;-59
2023/12/18 07:14:48;;;;;;;;;;;;;;;18.15;59.12;102571.22;7379541;19;1441;-59
2023/12/18 07:17:16;;;;;;;;;;;;;;;17.91;59.80;102576.13;7391208;19;1590;-59
2023/12/18 07:19:47;;;;;;;;;;;;;;;17.77;60.00;102554.56;7383782;19;1733;-60
2023/12/18 07:22:15;;;;;;;;;;;;;;;18.05;59.44;102548.59;7391818;19;1431;-59
2023/12/18 07:24:43;;;;;;;;;;;;;;;18.57;58.29;102561.66;7390184;19;1478;-59
2023/12/18 07:27:11;;;;;;;;;;;;;;;18.85;57.67;102565.44;7390513;19;1243;-59
2023/12/18 07:29:40;;;;;;;;;;;;;;;18.62;58.11;102577.47;7390714;19;1450;-60
2023/12/18 07:32:08;;;;;;;;;;;;;;;18.19;58.95;102585.28;7389401;19;1848;-59
2023/12/18 07:34:37;;;;;;;;;;;;;;;17.93;59.54;102579.56;7377070;19;1544;-59
2023/12/18 07:37:08;;;;;;;;;;;;;;;17.83;59.88;102581.00;7391900;19;1153;-60
2023/12/18 07:39:36;;;;;;;;;;;;;;;18.11;59.32;102558.94;7390477;19;1623;-59
2023/12/18 07:42:05;;;;;;;;;;;;;;;18.66;57.91;102571.88;7391731;19;1119;-59
2023/12/18 07:44:33;;;;;;;;;;;;;;;18.64;58.09;102551.44;7388778;19;1606;-60
2023/12/18 07:47:02;;;;;;;;;;;;;;;18.36;58.61;102562.91;7391320;19;1143;-59
2023/12/18 07:49:30;;;;;;;;;;;;;;;18.10;59.38;102559.88;7390711;19;1631;-59
2023/12/18 07:51:58;;;;;;;;;;;;;;;17.94;59.77;102565.22;7391117;19;1899;-59
2023/12/18 07:54:29;;;;;;;;;;;;;;;18.16;59.42;102585.44;7391679;19;1484;-59
2023/12/18 07:56:58;;;;;;;;;;;;;;;18.66;58.29;102558.47;7390180;19;1548;-59
2023/12/18 07:59:27;;;;;;;;;;;;;;;18.72;58.14;102567.09;7388861;19;1179;-59
2023/12/18 08:01:55;;;;;;;;;;;;;;;18.36;58.80;102542.31;7389919;19;1485;-60
2023/12/18 08:04:23;;;;;;;;;;;;;;;18.09;59.31;102529.56;7388755;19;1261;-59
2023/12/18 08:06:53;;;;;;;;;;;;;;;17.98;59.76;102541.81;7381147;19;1271;-60
2023/12/18 08:09:22;;;;;;;;;;;;;;;18.20;59.38;102547.69;7353053;19;13013;-59
2023/12/18 08:11:52;;;;;;;;;;;;;;;18.74;58.05;102539.25;7383039;19;1866;-59
2023/12/18 08:14:21;;;;;;;;;;;;;;;18.72;58.07;102545.63;7386764;19;1239;-60
2023/12/18 08:16:49;;;;;;;;;;;;;;;18.44;58.61;102528.50;7387915;19;1162;-60
2023/12/18 08:19:17;;;;;;;;;;;;;;;18.22;59.18;102550.28;7387515;19;1211;-59
2023/12/18 08:21:46;;;;;;;;;;;;;;;18.05;59.35;102529.84;7388414;19;1134;-59
2023/12/18 08:24:14;;;;;;;;;;;;;;;18.25;59.23;102529.56;7387762;19;1188;-60
2023/12/18 08:26:42;;;;;;;;;;;;;;;18.72;58.31;102514.38;7388191;19;1523;-60
2023/12/18 08:29:13;;;;;;;;;;;;;;;18.82;58.13;102522.72;7388337;19;1409;-60
2023/12/18 08:31:42;;;;;;;;;;;;;;;18.58;58.57;102520.53;7388179;19;1846;-60
2023/12/18 08:34:11;;;;;;;;;;;;;;;18.37;59.15;102521.78;7375057;19;1346;-60
2023/12/18 08:36:39;;;;;;;;;;;;;;;18.20;59.63;102515.56;7388820;19;1444;-60
2023/12/18 08:39:08;;;;;;;;;;;;;;;18.17;59.73;102494.34;7387065;19;1241;-60
2023/12/18 08:41:37;;;;;;;;;;;;;;;18.57;58.84;102491.16;7387731;19;1115;-60
2023/12/18 08:44:05;;;;;;;;;;;;;;;18.84;58.22;102497.59;7388414;19;1481;-60
2023/12/18 08:46:36;;;;;;;;;;;;;;;18.71;58.61;102493.88;7387536;19;1396;-61
2023/12/18 08:49:04;;;;;;;;;;;;;;;18.48;58.99;102488.06;7386475;19;1298;-60
2023/12/18 08:51:32;;;;;;;;;;;;;;;17.93;59.55;102443.06;7388019;19;2243;-60
2023/12/18 08:54:04;;;;;;;;;;;;;;;18.18;59.80;102517.47;7387118;19;1445;-59
2023/12/18 08:56:32;;;;;;;;;;;;;;;18.44;59.32;102507.06;7385485;19;1831;-60
2023/12/18 08:59:01;;;;;;;;;;;;;;;18.82;58.36;102503.97;7387616;19;1186;-59
2023/12/18 09:01:29;;;;;;;;;;;;;;;19.15;57.61;102513.63;7387577;19;1638;-59
2023/12/18 09:04:00;;;;;;;;;;;;;;;18.94;58.25;102505.03;7386340;19;1142;-60
2023/12/18 09:06:31;;;;;;;;;;;;;;;18.62;58.93;102506.00;7377773;19;1513;-59
2023/12/18 09:09:00;;;;;;;;;;;;;;;18.44;59.40;102499.03;7387102;19;1361;-59
2023/12/18 09:11:29;;;;;;;;;;;;;;;18.32;59.77;102479.19;7387138;19;1844;-59
2023/12/18 09:13:58;;;;;;;;;;;;;;;18.29;59.75;102479.38;7387508;19;1718;-59
2023/12/18 09:16:26;;;;;;;;;;;;;;;18.72;58.73;102470.59;7388786;19;1508;-59
2023/12/18 09:18:55;;;;;;;;;;;;;;;19.06;58.00;102469.47;7386870;19;1596;-59
2023/12/18 09:21:26;;;;;;;;;;;;;;;19.00;57.94;102484.13;7386398;19;1654;-59
2023/12/18 09:23:54;;;;;;;;;;;;;;;18.66;58.86;102480.75;7387392;19;1540;-59
2023/12/18 09:26:23;;;;;;;;;;;;;;;18.48;58.91;102471.09;7387265;19;1587;-59
2023/12/18 09:28:51;;;;;;;;;;;;;;;18.33;59.47;102469.34;7387055;19;1560;-59
2023/12/18 09:31:20;;;;;;;;;;;;;;;18.25;59.61;102481.38;7387033;19;1270;-59
2023/12/18 09:33:48;;;;;;;;;;;;;;;18.59;58.97;102457.94;7371608;19;1901;-59
2023/12/18 09:36:17;;;;;;;;;;;;;;;19.08;57.96;102456.84;7386786;19;1779;-59
2023/12/18 09:38:48;;;;;;;;;;;;;;;19.05;57.89;102440.91;7387445;19;1691;-59
2023/12/18 09:41:22;;;;;;;;;;;;;;;18.76;58.35;102450.69;7386138;19;1773;-60
2023/12/18 09:43:52;;;;;;;;;;;;;;;18.47;59.04;102437.25;7387280;19;1744;-60
2023/12/18 09:46:20;;;;;;;;;;;;;;;18.36;59.37;102471.84;7388041;19;1797;-60
2023/12/18 09:48:48;;;;;;;;;;;;;;;18.20;59.75;102456.66;7386014;19;1215;-60
2023/12/18 09:51:18;;;;;;;;;;;;;;;18.44;59.59;102458.84;7386677;19;1876;-60
2023/12/18 09:53:50;;;;;;;;;;;;;;;18.97;58.11;102457.47;7382922;19;1853;-60
2023/12/18 09:56:19;;;;;;;;;;;;;;;19.08;57.57;102449.66;7383829;19;1757;-60
2023/12/18 09:58:48;;;;;;;;;;;;;;;18.88;57.94;102458.06;7383873;19;1379;-59
2023/12/18 10:01:17;;;;;;;;;;;;;;;18.64;58.61;102455.88;7384313;19;1532;-60
2023/12/18 10:03:45;;;;;;;;;;;;;;;18.42;58.84;102453.59;7385417;19;1007;-60
2023/12/18 10:06:14;;;;;;;;;;;;;;;18.33;59.40;102459.50;7385373;19;1219;-60
2023/12/18 10:08:42;;;;;;;;;;;;;;;18.23;59.84;102455.63;7387196;19;1353;-60
2023/12/18 10:11:25;;;;;;;;;;;;;;;18.65;59.06;102446.00;7391345;19;1544;-60
2023/12/18 10:13:55;;;;;;;;;;;;;;;19.15;57.89;102436.72;7390411;19;1869;-60
2023/12/18 10:16:23;;;;;;;;;;;;;;;19.04;57.81;102410.56;7394445;19;1627;-60
2023/12/18 10:18:52;;;;;;;;;;;;;;;18.81;58.44;102413.81;7393722;19;1341;-60
2023/12/18 10:21:23;;;;;;;;;;;;;;;18.55;59.19;102400.16;7389607;19;1444;-60
2023/12/18 10:23:51;;;;;;;;;;;;;;;18.42;59.58;102391.13;7393264;19;1253;-60
2023/12/18 10:26:22;;;;;;;;;;;;;;;18.29;59.92;102386.50;7391820;19;1294;-60
2023/12/18 10:28:51;;;;;;;;;;;;;;;18.52;59.53;102360.13;7392451;19;1203;-60
2023/12/18 10:31:20;;;;;;;;;;;;;;;19.03;58.56;102373.97;7328583;19;13152;-60
2023/12/18 10:33:48;;;;;;;;;;;;;;;19.14;58.31;102383.16;7377052;19;1866;-60
2023/12/18 10:36:17;;;;;;;;;;;;;;;18.94;58.76;102371.91;7392445;19;1467;-60
2023/12/18 10:38:48;;;;;;;;;;;;;;;18.77;58.91;102367.53;7394249;19;1689;-59
2023/12/18 10:41:19;;;;;;;;;;;;;;;18.65;59.21;102368.31;7391531;19;1294;-60
2023/12/18 10:43:50;;;;;;;;;;;;;;;18.51;59.62;102373.66;7391803;19;1571;-60
2023/12/18 10:46:19;;;;;;;;;;;;;;;18.50;59.78;102380.78;7392411;19;1439;-60
2023/12/18 10:48:49;;;;;;;;;;;;;;;18.90;59.05;102367.69;7390292;19;1682;-60
2023/12/18 10:51:20;;;;;;;;;;;;;;;19.14;58.39;102372.44;7391972;19;1450;-60
2023/12/18 10:53:50;;;;;;;;;;;;;;;19.01;58.85;102357.13;7388677;19;1845;-60
2023/12/18 10:56:21;;;;;;;;;;;;;;;18.78;59.19;102355.00;7391140;19;1418;-60
2023/12/18 10:58:53;;;;;;;;;;;;;;;18.61;59.54;102367.63;7390307;19;1760;-60
2023/12/18 11:01:22;;;;;;;;;;;;;;;18.53;59.93;102367.22;7393108;19;1477;-60
2023/12/18 11:03:51;;;;;;;;;;;;;;;18.29;60.35;102370.44;7390777;19;1263;-60
2023/12/18 11:06:20;;;;;;;;;;;;;;;18.48;60.00;102362.16;7390928;19;1448;-60
2023/12/18 11:08:49;;;;;;;;;;;;;;;18.95;59.12;102357.53;7390594;19;1563;-60
2023/12/18 11:11:19;;;;;;;;;;;;;;;19.04;58.84;102356.94;7388545;19;1713;-60
2023/12/18 11:13:58;;;;;;;;;;;;;;;18.84;59.39;102371.59;7388932;19;1843;-60
2023/12/18 11:16:32;;;;;;;;;;;;;;;18.57;59.91;102354.50;7387370;19;1448;-60
2023/12/18 11:19:06;;;;;;;;;;;;;;;18.46;60.13;102347.13;7390597;19;1603;-60
2023/12/18 11:21:36;;;;;;;;;;;;;;;18.33;60.66;102354.19;7382385;19;1179;-60
2023/12/18 11:24:06;;;;;;;;;;;;;;;18.53;60.26;102351.16;7389155;19;1496;-60
2023/12/18 11:26:37;;;;;;;;;;;;;;;18.88;59.38;102346.34;7388356;19;1216;-61
2023/12/18 11:29:28;;;;;;;;;;;;;;;18.95;59.26;102354.84;7388625;19;1182;-60
2023/12/18 11:31:56;;;;;;;;;;;;;;;18.70;59.73;102342.06;7388770;19;1467;-58
2023/12/18 11:34:25;;;;;;;;;;;;;;;18.51;60.03;102333.47;7375315;19;1845;-60
2023/12/18 11:36:53;;;;;;;;;;;;;;;18.38;60.56;102352.06;7390477;19;1194;-59
2023/12/18 11:39:22;;;;;;;;;;;;;;;18.24;60.90;102344.88;7390066;19;1923;-59
2023/12/18 11:41:51;;;;;;;;;;;;;;;18.54;60.24;102336.78;7390030;19;1685;-60
2023/12/18 11:44:22;;;;;;;;;;;;;;;18.88;59.63;102319.53;7389442;19;1456;-60
2023/12/18 11:46:52;;;;;;;;;;;;;;;18.83;59.64;102321.63;7387827;19;1584;-60
2023/12/18 11:49:21;;;;;;;;;;;;;;;18.56;60.16;102318.84;7387738;19;1412;-60
2023/12/18 11:51:52;;;;;;;;;;;;;;;18.37;60.46;102318.22;7390622;19;1210;-60
2023/12/18 11:54:26;;;;;;;;;;;;;;;18.23;60.70;102305.69;7389081;19;1858;-60
2023/12/18 11:56:55;;;;;;;;;;;;;;;18.15;61.25;102300.78;7389159;19;1782;-60
2023/12/18 11:59:27;;;;;;;;;;;;;;;18.56;60.10;102301.88;7387742;19;1501;-60
2023/12/18 12:01:55;;;;;;;;;;;;;;;18.90;59.33;102287.28;7388695;19;1218;-59
2023/12/18 12:04:25;;;;;;;;;;;;;;;18.72;59.67;102291.06;7388907;19;1417;-60
2023/12/18 12:06:54;;;;;;;;;;;;;;;18.52;60.10;102297.66;7389663;19;1520;-59
2023/12/18 12:09:22;;;;;;;;;;;;;;;18.29;60.81;102273.16;7390319;19;1837;-60
2023/12/18 12:11:50;;;;;;;;;;;;;;;18.21;60.81;102257.56;7387259;19;1861;-59
2023/12/18 12:14:19;;;;;;;;;;;;;;;18.21;60.81;102265.59;7387846;19;1918;-60
2023/12/18 12:17:03;;;;;;;;;;;;;;;18.64;60.19;102270.97;7390347;19;1750;-59
2023/12/18 12:19:34;;;;;;;;;;;;;;;18.85;59.62;102286.69;7390181;19;1702;-60
2023/12/18 12:22:03;;;;;;;;;;;;;;;18.62;59.93;102272.00;7388834;19;1758;-60
2023/12/18 12:24:33;;;;;;;;;;;;;;;18.42;60.63;102281.28;7387104;19;1203;-60
2023/12/18 12:27:01;;;;;;;;;;;;;;;18.32;60.73;102301.56;7389133;19;1320;-59
2023/12/18 12:29:30;;;;;;;;;;;;;;;18.13;61.05;102289.31;7387523;19;1698;-59
2023/12/18 12:32:01;;;;;;;;;;;;;;;18.35;60.86;102282.66;7386044;19;1768;-60
2023/12/18 12:34:30;;;;;;;;;;;;;;;18.77;59.81;102278.25;7373092;19;1887;-60
2023/12/18 12:37:03;;;;;;;;;;;;;;;18.70;59.97;102283.09;7389848;19;1516;-59
2023/12/18 12:39:31;;;;;;;;;;;;;;;18.48;60.35;102283.59;7390553;19;1344;-59
2023/12/18 12:42:00;;;;;;;;;;;;;;;18.32;60.56;102282.81;7390256;19;1740;-59
2023/12/18 12:44:29;;;;;;;;;;;;;;;18.16;61.09;102290.94;7389077;19;1452;-61
2023/12/18 12:46:58;;;;;;;;;;;;;;;18.25;61.12;102293.91;7388598;19;1884;-61
2023/12/18 12:49:29;;;;;;;;;;;;;;;18.62;60.38;102307.72;7389209;19;1541;-63
2023/12/18 12:51:57;;;;;;;;;;;;;;;18.86;59.80;102285.72;7386232;19;1520;-63
2023/12/18 12:54:27;;;;;;;;;;;;;;;18.60;60.16;102284.66;7386086;19;1853;-62
2023/12/18 12:56:55;;;;;;;;;;;;;;;18.35;60.41;102266.59;7385240;19;1456;-60